sensor_id;sensor_type;location;lat;lon;timestamp;P1;durP1;ratioP1;P2;durP2;ratioP2
68108;SDS011;54893;49.864;19.084;2023-08-31T00:02:48;23.63;;;10.25;;
68108;SDS011;54893;49.864;19.084;2023-08-31T00:07:49;23.35;;;9.65;;
68108;SDS011;54893;49.864;19.084;2023-08-31T00:12:49;23.83;;;10.07;;
68108;SDS011;54893;49.864;19.084;2023-08-31T00:17:50;20.07;;;8.93;;
68108;SDS011;54893;49.864;19.084;2023-08-31T00:22:50;20.70;;;9.27;;
68108;SDS011;54893;49.864;19.084;2023-08-31T00:27:50;19.47;;;9.13;;
68108;SDS011;54893;49.864;19.084;2023-08-31T00:32:52;19.50;;;9.05;;
68108;SDS011;54893;49.864;19.084;2023-08-31T00:37:53;20.00;;;9.73;;
68108;SDS011;54893;49.864;19.084;2023-08-31T00:42:58;19.02;;;9.00;;
68108;SDS011;54893;49.864;19.084;2023-08-31T00:47:59;19.73;;;9.07;;
68108;SDS011;54893;49.864;19.084;2023-08-31T00:52:59;20.07;;;9.47;;
68108;SDS011;54893;49.864;19.084;2023-08-31T00:58:00;19.27;;;9.17;;
68108;SDS011;54893;49.864;19.084;2023-08-31T01:03:12;18.57;;;9.77;;
68108;SDS011;54893;49.864;19.084;2023-08-31T01:08:21;25.52;;;10.45;;
68108;SDS011;54893;49.864;19.084;2023-08-31T01:13:33;22.15;;;9.68;;
68108;SDS011;54893;49.864;19.084;2023-08-31T01:18:36;23.60;;;10.20;;
68108;SDS011;54893;49.864;19.084;2023-08-31T01:24:01;22.98;;;10.10;;
68108;SDS011;54893;49.864;19.084;2023-08-31T01:29:01;20.63;;;9.80;;
68108;SDS011;54893;49.864;19.084;2023-08-31T01:34:02;21.67;;;9.95;;
68108;SDS011;54893;49.864;19.084;2023-08-31T01:39:05;22.77;;;9.73;;
68108;SDS011;54893;49.864;19.084;2023-08-31T01:44:12;24.88;;;10.40;;
68108;SDS011;54893;49.864;19.084;2023-08-31T01:49:15;23.77;;;10.30;;
68108;SDS011;54893;49.864;19.084;2023-08-31T01:54:15;25.45;;;11.38;;
68108;SDS011;54893;49.864;19.084;2023-08-31T01:59:16;25.65;;;10.95;;
68108;SDS011;54893;49.864;19.084;2023-08-31T02:04:16;24.95;;;11.02;;
68108;SDS011;54893;49.864;19.084;2023-08-31T02:09:17;29.40;;;11.80;;
68108;SDS011;54893;49.864;19.084;2023-08-31T02:14:17;27.70;;;11.67;;
68108;SDS011;54893;49.864;19.084;2023-08-31T02:19:17;27.57;;;11.40;;
68108;SDS011;54893;49.864;19.084;2023-08-31T02:24:18;27.35;;;11.77;;
68108;SDS011;54893;49.864;19.084;2023-08-31T02:29:18;24.40;;;10.90;;
68108;SDS011;54893;49.864;19.084;2023-08-31T02:34:18;23.30;;;10.37;;
68108;SDS011;54893;49.864;19.084;2023-08-31T02:39:19;24.17;;;10.70;;
68108;SDS011;54893;49.864;19.084;2023-08-31T02:44:20;19.92;;;9.40;;
68108;SDS011;54893;49.864;19.084;2023-08-31T02:49:20;25.03;;;10.60;;
68108;SDS011;54893;49.864;19.084;2023-08-31T02:54:21;23.53;;;9.80;;
68108;SDS011;54893;49.864;19.084;2023-08-31T02:59:21;20.37;;;8.90;;
68108;SDS011;54893;49.864;19.084;2023-08-31T03:04:21;17.42;;;7.78;;
68108;SDS011;54893;49.864;19.084;2023-08-31T03:09:21;18.43;;;8.13;;
68108;SDS011;54893;49.864;19.084;2023-08-31T03:14:22;21.40;;;9.57;;
68108;SDS011;54893;49.864;19.084;2023-08-31T03:19:22;20.90;;;9.60;;
68108;SDS011;54893;49.864;19.084;2023-08-31T03:24:23;20.70;;;8.43;;
68108;SDS011;54893;49.864;19.084;2023-08-31T03:29:23;23.50;;;9.60;;
68108;SDS011;54893;49.864;19.084;2023-08-31T03:34:23;30.65;;;9.98;;
68108;SDS011;54893;49.864;19.084;2023-08-31T03:39:24;25.40;;;11.05;;
68108;SDS011;54893;49.864;19.084;2023-08-31T03:44:25;29.15;;;10.85;;
68108;SDS011;54893;49.864;19.084;2023-08-31T03:49:25;26.60;;;10.30;;
68108;SDS011;54893;49.864;19.084;2023-08-31T03:54:26;23.70;;;10.00;;
68108;SDS011;54893;49.864;19.084;2023-08-31T03:59:26;24.30;;;9.27;;
68108;SDS011;54893;49.864;19.084;2023-08-31T04:04:26;28.63;;;10.40;;
68108;SDS011;54893;49.864;19.084;2023-08-31T04:09:27;23.30;;;9.13;;
68108;SDS011;54893;49.864;19.084;2023-08-31T04:14:27;19.93;;;8.90;;
68108;SDS011;54893;49.864;19.084;2023-08-31T04:19:27;22.30;;;8.48;;
68108;SDS011;54893;49.864;19.084;2023-08-31T04:24:28;19.40;;;8.38;;
68108;SDS011;54893;49.864;19.084;2023-08-31T04:29:28;18.90;;;8.70;;
68108;SDS011;54893;49.864;19.084;2023-08-31T04:34:28;18.10;;;8.23;;
68108;SDS011;54893;49.864;19.084;2023-08-31T04:39:29;15.20;;;7.82;;
68108;SDS011;54893;49.864;19.084;2023-08-31T04:44:29;14.07;;;6.90;;
68108;SDS011;54893;49.864;19.084;2023-08-31T04:49:29;15.23;;;6.95;;
68108;SDS011;54893;49.864;19.084;2023-08-31T04:54:29;17.60;;;7.90;;
68108;SDS011;54893;49.864;19.084;2023-08-31T04:59:30;18.85;;;8.75;;
68108;SDS011;54893;49.864;19.084;2023-08-31T05:04:30;15.55;;;7.40;;
68108;SDS011;54893;49.864;19.084;2023-08-31T05:09:30;13.60;;;6.33;;
68108;SDS011;54893;49.864;19.084;2023-08-31T05:14:35;10.47;;;5.70;;
68108;SDS011;54893;49.864;19.084;2023-08-31T05:19:37;11.35;;;5.57;;
68108;SDS011;54893;49.864;19.084;2023-08-31T05:24:37;7.27;;;3.80;;
68108;SDS011;54893;49.864;19.084;2023-08-31T05:29:38;6.93;;;3.60;;
68108;SDS011;54893;49.864;19.084;2023-08-31T05:34:38;5.82;;;2.90;;
68108;SDS011;54893;49.864;19.084;2023-08-31T05:39:39;10.43;;;2.97;;
68108;SDS011;54893;49.864;19.084;2023-08-31T05:44:39;10.87;;;2.87;;
68108;SDS011;54893;49.864;19.084;2023-08-31T05:49:40;6.28;;;2.97;;
68108;SDS011;54893;49.864;19.084;2023-08-31T05:54:40;7.55;;;3.28;;
68108;SDS011;54893;49.864;19.084;2023-08-31T05:59:40;6.17;;;3.00;;
68108;SDS011;54893;49.864;19.084;2023-08-31T06:04:40;6.28;;;2.83;;
68108;SDS011;54893;49.864;19.084;2023-08-31T06:09:41;7.32;;;2.83;;
68108;SDS011;54893;49.864;19.084;2023-08-31T06:14:41;6.83;;;3.40;;
68108;SDS011;54893;49.864;19.084;2023-08-31T06:19:41;5.40;;;2.60;;
68108;SDS011;54893;49.864;19.084;2023-08-31T06:24:42;5.47;;;2.40;;
68108;SDS011;54893;49.864;19.084;2023-08-31T06:29:43;5.53;;;2.73;;
68108;SDS011;54893;49.864;19.084;2023-08-31T06:34:44;5.67;;;2.67;;
68108;SDS011;54893;49.864;19.084;2023-08-31T06:39:44;6.13;;;2.85;;
68108;SDS011;54893;49.864;19.084;2023-08-31T06:44:45;5.93;;;2.60;;
68108;SDS011;54893;49.864;19.084;2023-08-31T06:49:46;6.27;;;2.30;;
68108;SDS011;54893;49.864;19.084;2023-08-31T06:54:46;4.90;;;2.30;;
68108;SDS011;54893;49.864;19.084;2023-08-31T06:59:46;5.15;;;1.90;;
68108;SDS011;54893;49.864;19.084;2023-08-31T07:04:47;4.97;;;2.10;;
68108;SDS011;54893;49.864;19.084;2023-08-31T07:09:49;4.83;;;2.23;;
68108;SDS011;54893;49.864;19.084;2023-08-31T07:14:49;7.83;;;2.73;;
68108;SDS011;54893;49.864;19.084;2023-08-31T07:19:50;5.30;;;2.50;;
68108;SDS011;54893;49.864;19.084;2023-08-31T07:24:50;5.65;;;2.25;;
68108;SDS011;54893;49.864;19.084;2023-08-31T07:29:51;6.27;;;2.20;;
68108;SDS011;54893;49.864;19.084;2023-08-31T07:34:54;5.18;;;2.55;;
68108;SDS011;54893;49.864;19.084;2023-08-31T07:39:54;5.28;;;2.58;;
68108;SDS011;54893;49.864;19.084;2023-08-31T07:44:54;5.63;;;2.53;;
68108;SDS011;54893;49.864;19.084;2023-08-31T07:49:55;8.10;;;2.60;;
68108;SDS011;54893;49.864;19.084;2023-08-31T07:54:55;6.25;;;2.20;;
68108;SDS011;54893;49.864;19.084;2023-08-31T07:59:55;4.27;;;2.03;;
68108;SDS011;54893;49.864;19.084;2023-08-31T08:04:56;8.33;;;2.07;;
68108;SDS011;54893;49.864;19.084;2023-08-31T08:09:56;5.57;;;1.60;;
68108;SDS011;54893;49.864;19.084;2023-08-31T08:14:57;3.47;;;1.52;;
68108;SDS011;54893;49.864;19.084;2023-08-31T08:19:57;4.10;;;1.75;;
68108;SDS011;54893;49.864;19.084;2023-08-31T08:24:58;3.55;;;1.45;;
68108;SDS011;54893;49.864;19.084;2023-08-31T08:29:59;3.40;;;1.70;;
68108;SDS011;54893;49.864;19.084;2023-08-31T08:34:59;3.67;;;1.70;;
68108;SDS011;54893;49.864;19.084;2023-08-31T08:40:00;3.55;;;1.77;;
68108;SDS011;54893;49.864;19.084;2023-08-31T08:45:01;4.28;;;1.90;;
68108;SDS011;54893;49.864;19.084;2023-08-31T08:50:02;4.65;;;2.20;;
68108;SDS011;54893;49.864;19.084;2023-08-31T08:55:04;3.77;;;2.10;;
68108;SDS011;54893;49.864;19.084;2023-08-31T09:00:06;4.13;;;2.10;;
68108;SDS011;54893;49.864;19.084;2023-08-31T09:05:07;4.10;;;2.25;;
68108;SDS011;54893;49.864;19.084;2023-08-31T09:10:07;3.70;;;2.17;;
68108;SDS011;54893;49.864;19.084;2023-08-31T09:15:08;4.63;;;2.67;;
68108;SDS011;54893;49.864;19.084;2023-08-31T09:20:08;4.97;;;2.07;;
68108;SDS011;54893;49.864;19.084;2023-08-31T09:25:09;5.20;;;2.42;;
68108;SDS011;54893;49.864;19.084;2023-08-31T09:30:09;4.77;;;2.20;;
68108;SDS011;54893;49.864;19.084;2023-08-31T09:35:11;4.70;;;2.20;;
68108;SDS011;54893;49.864;19.084;2023-08-31T09:40:14;5.10;;;2.77;;
68108;SDS011;54893;49.864;19.084;2023-08-31T09:45:16;4.82;;;3.10;;
68108;SDS011;54893;49.864;19.084;2023-08-31T09:50:17;6.00;;;3.80;;
68108;SDS011;54893;49.864;19.084;2023-08-31T09:55:19;5.63;;;3.80;;
68108;SDS011;54893;49.864;19.084;2023-08-31T10:00:21;6.82;;;3.92;;
68108;SDS011;54893;49.864;19.084;2023-08-31T10:05:21;5.67;;;3.67;;
68108;SDS011;54893;49.864;19.084;2023-08-31T10:10:22;11.70;;;4.00;;
68108;SDS011;54893;49.864;19.084;2023-08-31T10:15:24;6.60;;;3.83;;
68108;SDS011;54893;49.864;19.084;2023-08-31T10:20:30;6.72;;;3.67;;
68108;SDS011;54893;49.864;19.084;2023-08-31T10:31:06;7.20;;;3.80;;
68108;SDS011;54893;49.864;19.084;2023-08-31T10:36:17;7.20;;;4.25;;
68108;SDS011;54893;49.864;19.084;2023-08-31T10:41:19;6.13;;;4.27;;
68108;SDS011;54893;49.864;19.084;2023-08-31T10:51:33;6.23;;;4.13;;
68108;SDS011;54893;49.864;19.084;2023-08-31T10:56:38;5.00;;;3.83;;
68108;SDS011;54893;49.864;19.084;2023-08-31T11:01:55;6.10;;;3.67;;
68108;SDS011;54893;49.864;19.084;2023-08-31T11:07:17;5.80;;;3.88;;
68108;SDS011;54893;49.864;19.084;2023-08-31T11:12:21;5.90;;;4.00;;
68108;SDS011;54893;49.864;19.084;2023-08-31T11:17:22;6.47;;;3.90;;
68108;SDS011;54893;49.864;19.084;2023-08-31T11:22:23;5.80;;;3.60;;
68108;SDS011;54893;49.864;19.084;2023-08-31T11:27:24;6.78;;;3.80;;
68108;SDS011;54893;49.864;19.084;2023-08-31T11:32:25;5.53;;;3.20;;
68108;SDS011;54893;49.864;19.084;2023-08-31T11:37:25;6.37;;;4.03;;
68108;SDS011;54893;49.864;19.084;2023-08-31T11:42:26;7.65;;;3.90;;
68108;SDS011;54893;49.864;19.084;2023-08-31T11:47:27;4.77;;;3.40;;
68108;SDS011;54893;49.864;19.084;2023-08-31T11:52:27;5.50;;;2.93;;
68108;SDS011;54893;49.864;19.084;2023-08-31T11:57:30;4.27;;;2.80;;
68108;SDS011;54893;49.864;19.084;2023-08-31T12:02:34;4.67;;;2.70;;
68108;SDS011;54893;49.864;19.084;2023-08-31T12:07:39;5.55;;;2.72;;
68108;SDS011;54893;49.864;19.084;2023-08-31T12:12:43;6.67;;;2.90;;
68108;SDS011;54893;49.864;19.084;2023-08-31T12:17:43;5.38;;;3.10;;
68108;SDS011;54893;49.864;19.084;2023-08-31T12:22:51;5.00;;;2.90;;
68108;SDS011;54893;49.864;19.084;2023-08-31T12:27:51;4.80;;;2.80;;
68108;SDS011;54893;49.864;19.084;2023-08-31T12:32:51;8.20;;;3.27;;
68108;SDS011;54893;49.864;19.084;2023-08-31T12:37:52;4.67;;;3.30;;
68108;SDS011;54893;49.864;19.084;2023-08-31T12:42:52;4.60;;;2.92;;
68108;SDS011;54893;49.864;19.084;2023-08-31T12:47:52;4.72;;;3.10;;
68108;SDS011;54893;49.864;19.084;2023-08-31T12:52:53;7.37;;;3.30;;
68108;SDS011;54893;49.864;19.084;2023-08-31T12:57:53;5.60;;;2.80;;
68108;SDS011;54893;49.864;19.084;2023-08-31T13:02:53;5.20;;;3.00;;
68108;SDS011;54893;49.864;19.084;2023-08-31T13:07:55;5.10;;;3.20;;
68108;SDS011;54893;49.864;19.084;2023-08-31T13:12:55;5.00;;;3.50;;
68108;SDS011;54893;49.864;19.084;2023-08-31T13:17:55;5.43;;;3.20;;
68108;SDS011;54893;49.864;19.084;2023-08-31T13:22:56;5.63;;;3.30;;
68108;SDS011;54893;49.864;19.084;2023-08-31T13:27:56;9.80;;;3.83;;
68108;SDS011;54893;49.864;19.084;2023-08-31T13:32:57;7.47;;;4.63;;
68108;SDS011;54893;49.864;19.084;2023-08-31T13:37:57;7.53;;;5.30;;
68108;SDS011;54893;49.864;19.084;2023-08-31T13:42:58;8.23;;;5.40;;
68108;SDS011;54893;49.864;19.084;2023-08-31T13:48:02;10.23;;;6.05;;
68108;SDS011;54893;49.864;19.084;2023-08-31T13:53:04;8.45;;;4.72;;
68108;SDS011;54893;49.864;19.084;2023-08-31T13:58:04;6.97;;;4.13;;
68108;SDS011;54893;49.864;19.084;2023-08-31T14:03:08;4.60;;;2.75;;
68108;SDS011;54893;49.864;19.084;2023-08-31T14:08:08;4.80;;;2.97;;
68108;SDS011;54893;49.864;19.084;2023-08-31T14:13:08;5.75;;;2.80;;
68108;SDS011;54893;49.864;19.084;2023-08-31T14:18:09;6.80;;;2.80;;
68108;SDS011;54893;49.864;19.084;2023-08-31T14:23:09;10.27;;;3.40;;
68108;SDS011;54893;49.864;19.084;2023-08-31T14:28:10;5.23;;;2.80;;
68108;SDS011;54893;49.864;19.084;2023-08-31T14:33:10;6.60;;;2.97;;
68108;SDS011;54893;49.864;19.084;2023-08-31T14:38:10;3.87;;;2.30;;
68108;SDS011;54893;49.864;19.084;2023-08-31T14:43:11;3.63;;;1.90;;
68108;SDS011;54893;49.864;19.084;2023-08-31T14:48:12;4.83;;;1.70;;
68108;SDS011;54893;49.864;19.084;2023-08-31T14:53:12;3.47;;;1.80;;
68108;SDS011;54893;49.864;19.084;2023-08-31T14:58:12;3.78;;;1.60;;
68108;SDS011;54893;49.864;19.084;2023-08-31T15:03:13;3.40;;;1.90;;
68108;SDS011;54893;49.864;19.084;2023-08-31T15:08:13;4.53;;;1.90;;
68108;SDS011;54893;49.864;19.084;2023-08-31T15:13:14;3.80;;;1.70;;
68108;SDS011;54893;49.864;19.084;2023-08-31T15:18:14;3.40;;;1.90;;
68108;SDS011;54893;49.864;19.084;2023-08-31T15:23:15;4.13;;;2.20;;
68108;SDS011;54893;49.864;19.084;2023-08-31T15:28:16;4.87;;;2.87;;
68108;SDS011;54893;49.864;19.084;2023-08-31T15:33:16;6.05;;;2.95;;
68108;SDS011;54893;49.864;19.084;2023-08-31T15:38:16;3.93;;;2.70;;
68108;SDS011;54893;49.864;19.084;2023-08-31T15:43:17;4.70;;;2.50;;
68108;SDS011;54893;49.864;19.084;2023-08-31T15:48:18;4.10;;;2.43;;
68108;SDS011;54893;49.864;19.084;2023-08-31T15:53:19;4.95;;;2.50;;
68108;SDS011;54893;49.864;19.084;2023-08-31T15:58:19;4.10;;;2.23;;
68108;SDS011;54893;49.864;19.084;2023-08-31T16:03:20;4.13;;;1.90;;
68108;SDS011;54893;49.864;19.084;2023-08-31T16:08:20;5.35;;;2.10;;
68108;SDS011;54893;49.864;19.084;2023-08-31T16:13:21;3.20;;;2.20;;
68108;SDS011;54893;49.864;19.084;2023-08-31T16:18:21;3.40;;;2.00;;
68108;SDS011;54893;49.864;19.084;2023-08-31T16:23:21;4.65;;;2.03;;
68108;SDS011;54893;49.864;19.084;2023-08-31T16:28:22;4.33;;;2.13;;
68108;SDS011;54893;49.864;19.084;2023-08-31T16:33:22;5.18;;;1.98;;
68108;SDS011;54893;49.864;19.084;2023-08-31T16:38:24;4.20;;;2.00;;
68108;SDS011;54893;49.864;19.084;2023-08-31T16:43:25;4.00;;;2.30;;
68108;SDS011;54893;49.864;19.084;2023-08-31T16:48:27;4.75;;;2.38;;
68108;SDS011;54893;49.864;19.084;2023-08-31T16:53:27;6.50;;;2.80;;
68108;SDS011;54893;49.864;19.084;2023-08-31T16:58:27;6.73;;;2.80;;
68108;SDS011;54893;49.864;19.084;2023-08-31T17:03:28;6.82;;;3.20;;
68108;SDS011;54893;49.864;19.084;2023-08-31T17:08:29;6.63;;;2.90;;
68108;SDS011;54893;49.864;19.084;2023-08-31T17:13:29;7.73;;;3.50;;
68108;SDS011;54893;49.864;19.084;2023-08-31T17:18:31;6.27;;;3.00;;
68108;SDS011;54893;49.864;19.084;2023-08-31T17:23:31;9.45;;;3.72;;
68108;SDS011;54893;49.864;19.084;2023-08-31T17:28:32;6.40;;;3.40;;
68108;SDS011;54893;49.864;19.084;2023-08-31T17:33:32;6.00;;;3.10;;
68108;SDS011;54893;49.864;19.084;2023-08-31T17:38:32;6.90;;;3.30;;
68108;SDS011;54893;49.864;19.084;2023-08-31T17:43:34;5.93;;;3.00;;
68108;SDS011;54893;49.864;19.084;2023-08-31T17:48:35;5.63;;;3.10;;
68108;SDS011;54893;49.864;19.084;2023-08-31T17:53:35;8.23;;;3.10;;
68108;SDS011;54893;49.864;19.084;2023-08-31T17:58:36;7.65;;;3.35;;
68108;SDS011;54893;49.864;19.084;2023-08-31T18:03:36;9.33;;;3.80;;
68108;SDS011;54893;49.864;19.084;2023-08-31T18:08:36;8.33;;;4.03;;
68108;SDS011;54893;49.864;19.084;2023-08-31T18:13:40;9.80;;;4.20;;
68108;SDS011;54893;49.864;19.084;2023-08-31T18:18:40;8.93;;;4.23;;
68108;SDS011;54893;49.864;19.084;2023-08-31T18:23:41;10.63;;;4.60;;
68108;SDS011;54893;49.864;19.084;2023-08-31T18:28:41;8.63;;;3.90;;
68108;SDS011;54893;49.864;19.084;2023-08-31T18:33:41;8.27;;;4.05;;
68108;SDS011;54893;49.864;19.084;2023-08-31T18:38:42;8.33;;;4.10;;
68108;SDS011;54893;49.864;19.084;2023-08-31T18:43:42;8.83;;;4.43;;
68108;SDS011;54893;49.864;19.084;2023-08-31T18:48:45;10.75;;;4.95;;
68108;SDS011;54893;49.864;19.084;2023-08-31T18:53:45;10.95;;;4.80;;
68108;SDS011;54893;49.864;19.084;2023-08-31T18:58:45;11.52;;;5.07;;
68108;SDS011;54893;49.864;19.084;2023-08-31T19:03:47;13.87;;;4.97;;
68108;SDS011;54893;49.864;19.084;2023-08-31T19:08:48;9.93;;;4.40;;
68108;SDS011;54893;49.864;19.084;2023-08-31T19:13:49;8.30;;;3.90;;
68108;SDS011;54893;49.864;19.084;2023-08-31T19:18:49;7.80;;;4.10;;
68108;SDS011;54893;49.864;19.084;2023-08-31T19:23:49;8.30;;;3.57;;
68108;SDS011;54893;49.864;19.084;2023-08-31T19:28:50;9.45;;;4.00;;
68108;SDS011;54893;49.864;19.084;2023-08-31T19:33:51;8.70;;;3.97;;
68108;SDS011;54893;49.864;19.084;2023-08-31T19:38:52;8.63;;;4.05;;
68108;SDS011;54893;49.864;19.084;2023-08-31T19:43:52;8.57;;;4.37;;
68108;SDS011;54893;49.864;19.084;2023-08-31T19:48:52;11.33;;;4.03;;
68108;SDS011;54893;49.864;19.084;2023-08-31T19:53:54;11.63;;;4.70;;
68108;SDS011;54893;49.864;19.084;2023-08-31T19:58:55;13.73;;;5.40;;
68108;SDS011;54893;49.864;19.084;2023-08-31T20:03:59;10.98;;;5.00;;
68108;SDS011;54893;49.864;19.084;2023-08-31T20:08:59;10.67;;;5.13;;
68108;SDS011;54893;49.864;19.084;2023-08-31T20:13:59;10.17;;;4.90;;
68108;SDS011;54893;49.864;19.084;2023-08-31T20:19:04;9.43;;;5.22;;
68108;SDS011;54893;49.864;19.084;2023-08-31T20:24:04;9.53;;;5.13;;
68108;SDS011;54893;49.864;19.084;2023-08-31T20:29:05;10.27;;;4.80;;
68108;SDS011;54893;49.864;19.084;2023-08-31T20:34:05;11.10;;;5.30;;
68108;SDS011;54893;49.864;19.084;2023-08-31T20:39:06;10.57;;;5.30;;
68108;SDS011;54893;49.864;19.084;2023-08-31T20:44:09;11.00;;;5.10;;
68108;SDS011;54893;49.864;19.084;2023-08-31T20:49:10;11.10;;;5.07;;
68108;SDS011;54893;49.864;19.084;2023-08-31T20:54:10;9.70;;;4.82;;
68108;SDS011;54893;49.864;19.084;2023-08-31T20:59:10;9.45;;;5.25;;
68108;SDS011;54893;49.864;19.084;2023-08-31T21:04:11;10.50;;;5.37;;
68108;SDS011;54893;49.864;19.084;2023-08-31T21:09:11;12.07;;;5.47;;
68108;SDS011;54893;49.864;19.084;2023-08-31T21:14:12;9.53;;;5.00;;
68108;SDS011;54893;49.864;19.084;2023-08-31T21:19:12;10.17;;;5.03;;
68108;SDS011;54893;49.864;19.084;2023-08-31T21:24:12;11.00;;;4.30;;
68108;SDS011;54893;49.864;19.084;2023-08-31T21:29:13;9.43;;;4.63;;
68108;SDS011;54893;49.864;19.084;2023-08-31T21:34:13;9.03;;;4.53;;
68108;SDS011;54893;49.864;19.084;2023-08-31T21:39:13;9.03;;;5.03;;
68108;SDS011;54893;49.864;19.084;2023-08-31T21:44:14;11.53;;;4.77;;
68108;SDS011;54893;49.864;19.084;2023-08-31T21:49:14;9.95;;;4.95;;
68108;SDS011;54893;49.864;19.084;2023-08-31T21:54:14;10.63;;;5.63;;
68108;SDS011;54893;49.864;19.084;2023-08-31T21:59:15;11.18;;;4.90;;
68108;SDS011;54893;49.864;19.084;2023-08-31T22:04:15;9.63;;;5.20;;
68108;SDS011;54893;49.864;19.084;2023-08-31T22:09:17;10.82;;;5.57;;
68108;SDS011;54893;49.864;19.084;2023-08-31T22:14:19;10.70;;;5.60;;
68108;SDS011;54893;49.864;19.084;2023-08-31T22:19:19;12.93;;;6.47;;
68108;SDS011;54893;49.864;19.084;2023-08-31T22:24:20;14.15;;;7.13;;
68108;SDS011;54893;49.864;19.084;2023-08-31T22:29:20;15.90;;;7.72;;
68108;SDS011;54893;49.864;19.084;2023-08-31T22:34:21;16.90;;;7.57;;
68108;SDS011;54893;49.864;19.084;2023-08-31T22:39:21;16.63;;;7.10;;
68108;SDS011;54893;49.864;19.084;2023-08-31T22:44:21;11.98;;;6.20;;
68108;SDS011;54893;49.864;19.084;2023-08-31T22:49:22;14.67;;;6.53;;
68108;SDS011;54893;49.864;19.084;2023-08-31T22:54:22;15.97;;;6.87;;
68108;SDS011;54893;49.864;19.084;2023-08-31T22:59:22;13.93;;;7.07;;
68108;SDS011;54893;49.864;19.084;2023-08-31T23:04:23;16.60;;;7.88;;
68108;SDS011;54893;49.864;19.084;2023-08-31T23:09:23;16.33;;;8.25;;
68108;SDS011;54893;49.864;19.084;2023-08-31T23:14:24;14.50;;;6.95;;
68108;SDS011;54893;49.864;19.084;2023-08-31T23:19:25;12.40;;;6.80;;
68108;SDS011;54893;49.864;19.084;2023-08-31T23:24:25;13.60;;;6.00;;
68108;SDS011;54893;49.864;19.084;2023-08-31T23:29:27;12.30;;;5.50;;
68108;SDS011;54893;49.864;19.084;2023-08-31T23:34:27;10.23;;;5.23;;
68108;SDS011;54893;49.864;19.084;2023-08-31T23:39:27;11.20;;;5.37;;
68108;SDS011;54893;49.864;19.084;2023-08-31T23:44:28;10.33;;;4.90;;
68108;SDS011;54893;49.864;19.084;2023-08-31T23:49:28;10.03;;;4.87;;
68108;SDS011;54893;49.864;19.084;2023-08-31T23:54:31;11.27;;;4.88;;
68108;SDS011;54893;49.864;19.084;2023-08-31T23:59:32;10.82;;;4.93;;
